LEBZ/BJZ METAR and TAF weather

Enter ICAO airport designator
Station Type Date Time Source
LEBZ METAR 2021/09/20 06:00 UTC NOAA

LEBZ 200600Z 28006KT CAVOK 14/12 Q1019


Station Type Date Time Source
LEBZ Decoded METAR 2021/09/20 06:00 UTC NOAA

Badajoz / Talavera La Real, Spain (LEBZ) 38-53N 006-49W 192M
Sep 20, 2021 - 02:00 AM EDT / 2021.09.20 0600 UTC
Wind: from the W (280 degrees) at 7 MPH (6 KT):0
Visibility: greater than 7 mile(s):0
Temperature: 57 F (14 C)
Dew Point: 53 F (12 C)
Relative Humidity: 87%
Pressure (altimeter): 30.09 in. Hg (1019 hPa)
ob: LEBZ 200600Z 28006KT CAVOK 14/12 Q1019
cycle: 6

Station Type Date Time Source
LEBZ TAF 2021/09/20 03:27 UTC NOAA

TAF LEBZ 200200Z 2003/2103 30005KT CAVOK TX30/2015Z TN13/2006Z

Example: see airport list